Time;durP1;ratioP1;P1;durP2;ratioP2;P2;SDS_P1;SDS_P2;PMS_P1;PMS_P2;Temp;Humidity;BMP_temperature;BMP_pressure;BME280_temperature;BME280_humidity;BME280_pressure;Samples;Min_cycle;Max_cycle;Signal;HPM_P1;HPM_P2
2021/01/09 00:01:18;;;;;;;21.97;11.30;;;1.10;99.90;;;;;;5068081;28;20206;-54
2021/01/09 00:03:45;;;;;;;22.07;11.30;;;1.10;99.90;;;;;;5066106;28;20603;-56
2021/01/09 00:06:11;;;;;;;21.97;12.60;;;1.00;99.90;;;;;;5066699;28;20226;-58
2021/01/09 00:08:39;;;;;;;23.33;12.13;;;1.10;99.90;;;;;;5066812;28;20571;-58
2021/01/09 00:11:05;;;;;;;22.23;12.00;;;1.10;99.90;;;;;;5066274;28;20221;-57
2021/01/09 00:13:32;;;;;;;22.67;12.33;;;1.00;99.90;;;;;;5066101;28;20859;-57
2021/01/09 00:15:58;;;;;;;22.10;12.07;;;1.10;99.90;;;;;;5066864;28;20283;-52
2021/01/09 00:18:25;;;;;;;23.27;12.40;;;1.10;99.90;;;;;;5066542;28;20202;-56
2021/01/09 00:20:51;;;;;;;20.67;11.07;;;1.10;99.90;;;;;;5066539;28;20208;-62
2021/01/09 00:23:17;;;;;;;21.10;11.53;;;1.10;99.90;;;;;;5067147;28;20634;-60
2021/01/09 00:25:44;;;;;;;22.30;12.97;;;1.10;99.90;;;;;;5065558;28;20222;-57
2021/01/09 00:28:11;;;;;;;21.87;12.13;;;1.10;99.90;;;;;;5063432;28;20229;-60
2021/01/09 00:30:37;;;;;;;21.07;12.37;;;1.00;99.90;;;;;;5066312;28;20202;-54
2021/01/09 00:33:03;;;;;;;22.47;12.70;;;1.20;99.90;;;;;;5065799;28;20255;-54
2021/01/09 00:35:30;;;;;;;23.47;12.27;;;1.20;99.90;;;;;;5062903;28;20230;-60
2021/01/09 00:37:56;;;;;;;21.73;12.13;;;1.10;99.90;;;;;;5066278;28;20605;-59
2021/01/09 00:40:22;;;;;;;23.20;13.00;;;1.10;99.90;;;;;;5065898;28;20210;-59
2021/01/09 00:42:49;;;;;;;22.17;12.70;;;1.10;99.90;;;;;;5064946;28;20199;-58
2021/01/09 00:45:16;;;;;;;21.53;12.43;;;1.20;99.90;;;;;;5064765;28;20553;-55
2021/01/09 00:47:42;;;;;;;46.73;22.23;;;1.20;99.90;;;;;;5065176;28;20222;-57
2021/01/09 00:50:09;;;;;;;22.67;12.80;;;1.20;99.90;;;;;;5065872;28;20206;-61
2021/01/09 00:52:35;;;;;;;24.53;13.57;;;1.20;99.90;;;;;;5063717;28;20202;-58
2021/01/09 00:55:02;;;;;;;23.53;13.50;;;1.20;99.90;;;;;;5138609;22;20230;-58
2021/01/09 00:57:28;;;;;;;24.70;13.80;;;1.30;99.90;;;;;;5041090;28;20816;-57
2021/01/09 00:59:55;;;;;;;21.83;11.90;;;1.30;99.90;;;;;;5045432;28;20210;-59
2021/01/09 01:02:21;;;;;;;24.60;12.50;;;1.20;99.90;;;;;;5047130;28;20249;-56
2021/01/09 01:04:48;;;;;;;21.60;11.97;;;1.20;99.90;;;;;;5044875;28;20219;-59
2021/01/09 01:07:14;;;;;;;23.83;12.53;;;1.30;99.90;;;;;;5042508;28;21011;-56
2021/01/09 01:09:40;;;;;;;23.37;12.93;;;1.20;99.90;;;;;;5046418;28;20211;-56
2021/01/09 01:12:07;;;;;;;24.03;12.77;;;1.30;99.90;;;;;;5045669;28;20210;-59
2021/01/09 01:14:34;;;;;;;23.47;11.80;;;1.30;99.90;;;;;;5046219;28;20227;-59
2021/01/09 01:17:01;;;;;;;21.77;11.73;;;1.30;99.90;;;;;;5046456;28;20592;-58
2021/01/09 01:19:27;;;;;;;23.07;12.50;;;1.30;99.90;;;;;;5041984;28;20212;-60
2021/01/09 01:21:53;;;;;;;20.60;11.40;;;1.30;99.90;;;;;;5045532;28;20218;-59
2021/01/09 01:24:19;;;;;;;19.27;10.40;;;1.30;99.90;;;;;;5046972;28;20227;-59
2021/01/09 01:26:45;;;;;;;19.63;10.90;;;1.40;99.90;;;;;;5046431;28;20196;-59
2021/01/09 01:29:12;;;;;;;22.07;10.17;;;1.40;99.90;;;;;;5044270;28;20211;-56
2021/01/09 01:31:38;;;;;;;19.57;10.10;;;1.30;99.90;;;;;;5046210;28;20719;-59
2021/01/09 01:34:05;;;;;;;21.37;10.10;;;1.30;99.90;;;;;;5045550;28;20214;-58
2021/01/09 01:36:31;;;;;;;20.73;10.93;;;1.30;99.90;;;;;;5045444;28;20277;-59
2021/01/09 01:38:58;;;;;;;20.40;10.77;;;1.30;99.90;;;;;;5045841;28;20214;-59
2021/01/09 01:41:24;;;;;;;21.57;10.83;;;1.40;99.90;;;;;;5046083;28;20218;-60
2021/01/09 01:43:50;;;;;;;20.57;11.33;;;1.30;99.90;;;;;;5045358;28;20223;-59
2021/01/09 01:46:17;;;;;;;21.40;11.20;;;1.30;99.90;;;;;;5045396;28;20298;-57
2021/01/09 01:48:44;;;;;;;19.60;10.23;;;1.30;99.90;;;;;;5044394;28;20443;-57
2021/01/09 01:51:13;;;;;;;18.33;9.30;;;1.30;99.90;;;;;;5044165;28;20211;-57
2021/01/09 01:53:40;;;;;;;19.97;9.90;;;1.30;99.90;;;;;;5045627;28;20231;-60
2021/01/09 01:56:07;;;;;;;19.80;9.90;;;1.30;99.90;;;;;;5039700;28;20234;-55
2021/01/09 01:58:33;;;;;;;19.33;9.77;;;1.30;99.90;;;;;;5045690;28;20572;-58
2021/01/09 02:01:00;;;;;;;21.37;9.80;;;1.30;99.90;;;;;;5047953;28;20203;-58
2021/01/09 02:03:26;;;;;;;19.47;9.43;;;1.30;99.90;;;;;;5047067;28;20654;-59
2021/01/09 02:06:03;;;;;;;20.50;10.37;;;1.30;99.90;;;;;;5049246;28;20203;-59
2021/01/09 02:08:35;;;;;;;19.17;9.47;;;1.30;99.90;;;;;;5038465;28;20551;-58
2021/01/09 02:11:06;;;;;;;19.00;9.47;;;1.30;99.90;;;;;;5048124;28;20210;-58
2021/01/09 02:13:40;;;;;;;20.63;9.37;;;1.30;99.90;;;;;;5052181;28;20229;-58
2021/01/09 02:16:06;;;;;;;20.83;10.27;;;1.30;99.90;;;;;;5051866;28;20214;-57
2021/01/09 02:18:36;;;;;;;19.13;9.37;;;1.30;99.90;;;;;;5051702;28;20206;-57
2021/01/09 02:21:06;;;;;;;20.20;9.80;;;1.30;99.90;;;;;;5052144;28;20198;-57
2021/01/09 02:23:34;;;;;;;23.20;11.87;;;1.30;99.90;;;;;;5049590;28;20231;-57
2021/01/09 02:26:00;;;;;;;24.33;11.67;;;1.30;99.90;;;;;;5045468;28;20199;-59
2021/01/09 02:28:26;;;;;;;23.77;11.43;;;1.30;99.90;;;;;;5050053;28;20571;-57
2021/01/09 02:30:55;;;;;;;22.50;11.40;;;1.30;99.90;;;;;;5051754;28;20229;-59
2021/01/09 02:33:22;;;;;;;25.37;12.63;;;1.30;99.90;;;;;;5051929;28;20619;-59
2021/01/09 02:35:51;;;;;;;24.20;12.53;;;1.30;99.90;;;;;;5050820;28;20759;-57
2021/01/09 02:38:17;;;;;;;25.30;12.27;;;1.30;99.90;;;;;;5051385;28;20206;-57
2021/01/09 02:40:45;;;;;;;25.87;13.37;;;1.30;99.90;;;;;;5051503;28;20211;-58
2021/01/09 02:43:12;;;;;;;28.37;14.40;;;1.30;99.90;;;;;;5052034;28;20241;-58
2021/01/09 02:45:39;;;;;;;28.67;14.60;;;1.30;99.90;;;;;;5051988;28;20207;-58
2021/01/09 02:48:06;;;;;;;28.20;14.77;;;1.20;99.90;;;;;;5051979;28;20210;-55
2021/01/09 02:50:32;;;;;;;24.40;13.33;;;1.30;99.90;;;;;;5045832;28;20577;-58
2021/01/09 02:52:59;;;;;;;26.00;14.83;;;1.20;99.90;;;;;;5050853;28;20198;-59
2021/01/09 02:55:25;;;;;;;27.13;13.77;;;1.30;99.90;;;;;;5050823;28;20234;-57
2021/01/09 02:57:52;;;;;;;29.03;14.33;;;1.20;99.90;;;;;;5050970;28;20211;-57
2021/01/09 03:00:19;;;;;;;28.30;14.83;;;1.20;99.90;;;;;;5052050;28;20787;-58
2021/01/09 03:02:46;;;;;;;29.07;14.43;;;1.30;99.90;;;;;;5052039;28;20207;-58
2021/01/09 03:05:13;;;;;;;28.30;14.87;;;1.20;99.90;;;;;;5051759;28;20227;-58
2021/01/09 03:07:39;;;;;;;29.30;14.87;;;1.30;99.90;;;;;;5051022;28;20677;-60
2021/01/09 03:10:07;;;;;;;29.00;15.23;;;1.20;99.90;;;;;;5048863;28;20207;-59
2021/01/09 03:12:33;;;;;;;30.20;15.40;;;1.20;99.90;;;;;;5049743;28;20286;-58
2021/01/09 03:15:00;;;;;;;29.30;14.43;;;1.30;99.90;;;;;;5048503;28;20705;-58
2021/01/09 03:17:26;;;;;;;27.80;13.70;;;1.20;99.90;;;;;;5051445;28;20210;-56
2021/01/09 03:19:53;;;;;;;27.33;13.77;;;1.20;99.90;;;;;;5044060;28;20210;-58
2021/01/09 03:22:19;;;;;;;26.10;13.50;;;1.30;99.90;;;;;;5050920;28;20210;-58
2021/01/09 03:24:45;;;;;;;26.73;14.20;;;1.30;99.90;;;;;;5050654;28;20234;-60
2021/01/09 03:27:11;;;;;;;29.13;14.67;;;1.30;99.90;;;;;;5038874;28;20207;-59
2021/01/09 03:29:38;;;;;;;25.97;13.67;;;1.30;99.90;;;;;;5044497;28;20206;-58
2021/01/09 03:32:05;;;;;;;28.97;15.20;;;1.20;99.90;;;;;;5051247;28;20313;-59
2021/01/09 03:34:32;;;;;;;26.33;13.23;;;1.30;99.90;;;;;;5050369;28;20230;-57
2021/01/09 03:36:58;;;;;;;25.53;14.20;;;1.20;99.90;;;;;;5051441;28;20223;-59
2021/01/09 03:39:24;;;;;;;26.37;13.83;;;1.40;99.90;;;;;;5050007;28;20207;-58
2021/01/09 03:41:50;;;;;;;24.67;12.43;;;1.30;99.90;;;;;;5050853;28;20210;-58
2021/01/09 03:44:17;;;;;;;26.07;13.93;;;1.30;99.90;;;;;;5047722;28;20226;-57
2021/01/09 03:46:43;;;;;;;25.50;13.33;;;1.30;99.90;;;;;;5048224;28;20692;-56
2021/01/09 03:49:10;;;;;;;26.87;13.83;;;1.30;99.90;;;;;;5044596;28;20306;-57
2021/01/09 03:51:36;;;;;;;26.30;13.87;;;1.30;99.90;;;;;;5047947;28;20638;-59
2021/01/09 03:54:03;;;;;;;25.90;14.03;;;1.30;99.90;;;;;;5047957;28;20740;-55
2021/01/09 03:56:29;;;;;;;25.23;13.87;;;1.20;99.90;;;;;;5049881;28;20246;-58
2021/01/09 03:58:55;;;;;;;24.23;13.03;;;1.30;99.90;;;;;;5045632;28;20213;-57
2021/01/09 04:01:21;;;;;;;25.27;13.23;;;1.30;99.90;;;;;;5045470;28;20203;-58
2021/01/09 04:03:48;;;;;;;26.80;14.33;;;1.30;99.90;;;;;;5040653;28;20223;-53
2021/01/09 04:06:15;;;;;;;25.73;13.60;;;1.20;99.90;;;;;;5047513;28;20196;-58
2021/01/09 04:08:41;;;;;;;28.27;14.37;;;1.30;99.90;;;;;;5040841;28;20265;-57
2021/01/09 04:11:07;;;;;;;24.90;12.53;;;1.30;99.90;;;;;;5042423;28;20214;-55
2021/01/09 04:13:33;;;;;;;23.57;12.83;;;1.30;99.90;;;;;;5045924;28;20219;-57
2021/01/09 04:16:02;;;;;;;25.23;13.53;;;1.30;99.90;;;;;;5046484;28;20223;-58
2021/01/09 04:18:30;;;;;;;23.80;12.23;;;1.30;99.90;;;;;;5041127;28;20203;-56
2021/01/09 04:20:56;;;;;;;25.77;12.93;;;1.30;99.90;;;;;;5046009;28;20212;-58
2021/01/09 04:23:23;;;;;;;25.17;12.37;;;1.30;99.90;;;;;;5046372;28;20230;-56
2021/01/09 04:25:49;;;;;;;24.00;12.37;;;1.30;99.90;;;;;;5045462;28;20199;-54
2021/01/09 04:28:16;;;;;;;24.90;12.77;;;1.30;99.90;;;;;;5047413;28;20211;-57
2021/01/09 04:30:42;;;;;;;24.20;12.43;;;1.30;99.90;;;;;;5050127;28;20195;-58
2021/01/09 04:33:08;;;;;;;23.50;12.10;;;1.30;99.90;;;;;;5047325;28;20203;-58
2021/01/09 04:35:35;;;;;;;24.93;12.87;;;1.30;99.90;;;;;;5041968;28;20234;-60
2021/01/09 04:38:01;;;;;;;22.30;11.37;;;1.40;99.90;;;;;;5053771;28;20229;-57
2021/01/09 04:40:28;;;;;;;21.60;11.30;;;1.30;99.90;;;;;;5045120;28;20209;-58
2021/01/09 04:42:54;;;;;;;22.03;10.83;;;1.30;99.90;;;;;;5041286;28;20258;-58
2021/01/09 04:45:21;;;;;;;22.83;12.27;;;1.30;99.90;;;;;;5047297;28;20219;-58
2021/01/09 04:47:49;;;;;;;21.40;10.97;;;1.30;99.90;;;;;;5039579;28;20198;-57
2021/01/09 04:50:17;;;;;;;21.60;11.10;;;1.30;99.90;;;;;;5052138;28;20211;-60
2021/01/09 04:52:43;;;;;;;22.53;10.93;;;1.30;99.90;;;;;;5040509;28;20204;-57
2021/01/09 04:55:11;;;;;;;20.47;9.97;;;1.30;99.90;;;;;;5048570;28;20648;-57
2021/01/09 04:57:38;;;;;;;19.03;9.60;;;1.40;99.90;;;;;;5041740;28;20285;-59
2021/01/09 05:00:06;;;;;;;19.30;9.60;;;1.40;99.90;;;;;;5039820;28;20203;-57
2021/01/09 05:02:35;;;;;;;19.93;9.80;;;1.40;99.90;;;;;;5051126;28;20248;-56
2021/01/09 05:05:02;;;;;;;19.67;10.07;;;1.40;99.90;;;;;;5049000;28;20594;-57
2021/01/09 05:07:29;;;;;;;19.33;9.10;;;1.40;99.90;;;;;;5051008;28;20681;-57
2021/01/09 05:10:03;;;;;;;18.27;8.80;;;1.40;99.90;;;;;;5052370;28;20665;-57
2021/01/09 05:12:32;;;;;;;17.77;9.03;;;1.40;99.90;;;;;;5052554;28;20622;-58
2021/01/09 05:15:01;;;;;;;18.77;9.23;;;1.40;99.90;;;;;;5054096;28;20317;-58
2021/01/09 05:17:27;;;;;;;17.53;8.47;;;1.40;99.90;;;;;;5052348;28;20214;-58
2021/01/09 05:19:53;;;;;;;18.20;8.67;;;1.40;99.90;;;;;;5049380;28;20691;-59
2021/01/09 05:22:20;;;;;;;17.63;8.87;;;1.40;99.90;;;;;;5050608;28;20199;-58
2021/01/09 05:24:48;;;;;;;18.90;9.10;;;1.40;99.90;;;;;;5051606;28;20219;-53
2021/01/09 05:27:17;;;;;;;19.07;9.60;;;1.40;99.90;;;;;;5052117;28;20199;-57
2021/01/09 05:29:43;;;;;;;19.17;9.60;;;1.50;99.90;;;;;;5053035;28;20195;-57
2021/01/09 05:32:10;;;;;;;17.87;9.03;;;1.40;99.90;;;;;;5054058;28;20215;-55
2021/01/09 05:34:50;;;;;;;21.20;10.07;;;1.50;99.90;;;;;;5054017;28;20227;-57
2021/01/09 05:37:19;;;;;;;21.23;9.53;;;1.50;99.90;;;;;;5053550;28;20229;-58
2021/01/09 05:39:53;;;;;;;18.27;9.27;;;1.40;99.90;;;;;;5053868;28;20261;-55
2021/01/09 05:42:27;;;;;;;20.03;9.43;;;1.40;99.90;;;;;;5054129;28;20211;-56
2021/01/09 05:44:56;;;;;;;20.63;9.20;;;1.40;99.90;;;;;;5053350;28;20226;-55
2021/01/09 05:47:24;;;;;;;18.70;8.87;;;1.50;99.90;;;;;;5050076;28;20199;-57
2021/01/09 05:49:51;;;;;;;17.97;8.80;;;1.40;99.90;;;;;;5041767;28;20207;-57
2021/01/09 05:52:17;;;;;;;17.47;8.37;;;1.40;99.90;;;;;;5053125;28;20713;-57
2021/01/09 05:54:44;;;;;;;20.07;9.40;;;1.40;99.90;;;;;;5053782;28;20235;-58
2021/01/09 05:57:16;;;;;;;18.57;8.90;;;1.40;99.90;;;;;;5053324;28;20230;-56
2021/01/09 05:59:44;;;;;;;19.47;8.07;;;1.40;99.90;;;;;;5053785;28;20203;-57
2021/01/09 06:02:12;;;;;;;17.40;8.70;;;1.50;99.90;;;;;;5053788;28;20199;-57
2021/01/09 06:04:44;;;;;;;21.10;9.63;;;1.40;99.90;;;;;;5053241;28;20253;-56
2021/01/09 06:07:19;;;;;;;17.23;8.00;;;1.50;99.90;;;;;;5053305;28;20575;-56
2021/01/09 06:09:50;;;;;;;15.97;7.77;;;1.50;99.90;;;;;;5054152;28;20690;-53
2021/01/09 06:12:21;;;;;;;17.43;8.40;;;1.40;99.90;;;;;;5053723;28;20203;-55
2021/01/09 06:14:49;;;;;;;18.47;8.53;;;1.40;99.90;;;;;;5049138;28;20585;-53
2021/01/09 06:17:17;;;;;;;14.73;6.80;;;1.50;99.90;;;;;;5049202;28;20314;-55
2021/01/09 06:19:45;;;;;;;18.57;8.30;;;1.50;99.90;;;;;;5052326;28;20202;-55
2021/01/09 06:22:12;;;;;;;15.83;7.77;;;1.50;99.90;;;;;;5053539;28;20203;-54
2021/01/09 06:24:38;;;;;;;16.87;8.27;;;1.50;99.90;;;;;;5051756;28;20230;-55
2021/01/09 06:27:06;;;;;;;16.43;8.30;;;1.50;99.90;;;;;;5052930;28;20199;-54
2021/01/09 06:29:34;;;;;;;16.40;8.40;;;1.50;99.90;;;;;;5053388;28;20207;-57
2021/01/09 06:32:06;;;;;;;16.90;7.83;;;1.50;99.90;;;;;;5052856;28;20489;-54
2021/01/09 06:34:33;;;;;;;17.33;8.13;;;1.60;99.90;;;;;;5053506;28;20364;-55
2021/01/09 06:37:02;;;;;;;16.57;8.10;;;1.50;99.90;;;;;;5051927;28;20284;-56
2021/01/09 06:39:31;;;;;;;13.97;7.37;;;1.60;99.90;;;;;;5039220;28;20218;-53
2021/01/09 06:42:01;;;;;;;15.80;7.97;;;1.60;99.90;;;;;;5043065;28;20207;-60
2021/01/09 06:44:27;;;;;;;14.80;7.50;;;1.60;99.90;;;;;;5052625;28;20309;-56
2021/01/09 06:46:55;;;;;;;15.90;8.13;;;1.60;99.90;;;;;;5052229;28;20240;-55
2021/01/09 06:49:23;;;;;;;17.53;8.33;;;1.60;99.90;;;;;;5052540;28;20253;-54
2021/01/09 06:51:55;;;;;;;16.77;7.70;;;1.60;99.90;;;;;;5053082;28;20566;-54
2021/01/09 06:54:23;;;;;;;16.97;8.47;;;1.70;99.90;;;;;;5052429;28;20234;-54
2021/01/09 06:56:51;;;;;;;15.67;8.30;;;1.70;99.90;;;;;;5049527;28;20242;-55
2021/01/09 06:59:31;;;;;;;16.83;8.23;;;1.70;99.90;;;;;;5052339;28;20222;-55
2021/01/09 07:02:18;;;;;;;16.03;8.37;;;1.70;99.90;;;;;;5287926;22;20241;-58
2021/01/09 07:05:05;;;;;;;17.10;8.33;;;1.70;99.90;;;;;;5063134;28;20221;-59
2021/01/09 07:07:33;;;;;;;17.07;8.33;;;1.70;99.90;;;;;;5068290;28;20204;-58
2021/01/09 07:10:18;;;;;;;17.47;8.97;;;1.70;99.90;;;;;;5067058;28;20740;-54
2021/01/09 07:12:53;;;;;;;15.87;8.07;;;1.70;99.90;;;;;;5070765;28;20849;-58
2021/01/09 07:15:20;;;;;;;17.90;8.93;;;1.70;99.90;;;;;;5070744;28;20206;-56
2021/01/09 07:17:52;;;;;;;15.63;7.57;;;1.70;99.90;;;;;;5070100;28;20207;-53
2021/01/09 07:20:20;;;;;;;17.27;8.97;;;1.70;99.90;;;;;;5070263;28;20225;-55
2021/01/09 07:22:48;;;;;;;15.57;8.40;;;1.70;99.90;;;;;;5072786;28;20230;-57
2021/01/09 07:25:27;;;;;;;16.67;7.97;;;1.70;99.90;;;;;;5074179;28;20214;-57
2021/01/09 07:27:58;;;;;;;15.80;8.37;;;1.80;99.90;;;;;;5062608;28;20203;-55
2021/01/09 07:42:25;;;;;;;17.33;9.57;;;1.80;99.90;;;;;;5125144;22;20601;-77
2021/01/09 07:45:08;;;;;;;15.93;8.43;;;1.80;99.90;;;;;;5065713;28;20191;-76
2021/01/09 07:47:40;;;;;;;14.77;7.67;;;1.80;99.90;;;;;;5064536;28;20213;-76
2021/01/09 07:50:08;;;;;;;14.30;7.77;;;1.70;99.90;;;;;;5057027;28;20221;-77
2021/01/09 07:52:35;;;;;;;16.40;8.47;;;1.80;99.90;;;;;;5074280;28;20214;-76
2021/01/09 07:55:02;;;;;;;15.67;8.33;;;1.80;99.90;;;;;;5077325;28;20202;-77
2021/01/09 07:57:31;;;;;;;14.47;7.87;;;1.70;99.90;;;;;;5073278;28;20225;-77
2021/01/09 08:00:08;;;;;;;16.03;9.00;;;1.80;99.90;;;;;;5073162;28;20851;-77
2021/01/09 08:02:37;;;;;;;17.13;8.20;;;1.80;99.90;;;;;;5074135;28;20218;-77
2021/01/09 08:05:10;;;;;;;17.03;8.90;;;1.80;99.90;;;;;;5073172;28;20214;-77
2021/01/09 08:07:38;;;;;;;14.17;7.43;;;1.80;99.90;;;;;;5075034;28;20203;-77
2021/01/09 08:10:19;;;;;;;14.40;7.93;;;1.80;99.90;;;;;;5073524;28;20240;-77
2021/01/09 08:12:55;;;;;;;18.13;9.47;;;1.80;99.90;;;;;;5067954;28;20657;-78
2021/01/09 08:15:25;;;;;;;20.33;10.57;;;1.80;99.90;;;;;;5073793;28;20250;-77
2021/01/09 08:17:52;;;;;;;19.30;9.80;;;1.80;99.90;;;;;;5074933;28;20205;-77
2021/01/09 08:20:19;;;;;;;16.03;8.97;;;1.80;99.90;;;;;;5072906;28;20202;-76
2021/01/09 08:22:56;;;;;;;15.67;8.80;;;1.80;99.90;;;;;;5072529;28;20696;-77
2021/01/09 08:25:24;;;;;;;17.33;9.67;;;1.80;99.90;;;;;;5073439;28;20202;-77
2021/01/09 08:27:54;;;;;;;19.90;10.33;;;1.80;99.90;;;;;;5074008;28;20194;-77
2021/01/09 08:30:22;;;;;;;18.83;10.73;;;1.80;99.90;;;;;;5073531;28;20655;-77
2021/01/09 08:32:49;;;;;;;18.80;10.40;;;1.80;99.90;;;;;;5071776;28;20219;-77
2021/01/09 08:35:16;;;;;;;18.17;9.80;;;1.90;99.90;;;;;;5072178;28;20206;-77
2021/01/09 08:37:49;;;;;;;18.33;9.83;;;1.90;99.90;;;;;;5072258;28;20218;-77
2021/01/09 08:40:18;;;;;;;18.87;9.97;;;2.00;99.90;;;;;;5073132;28;20203;-77
2021/01/09 08:43:00;;;;;;;19.20;10.53;;;1.90;99.90;;;;;;5070754;28;20234;-77
2021/01/09 08:45:40;;;;;;;16.53;9.60;;;2.00;99.90;;;;;;5073669;28;20205;-77
2021/01/09 08:48:09;;;;;;;20.63;10.83;;;2.00;99.90;;;;;;5070965;28;20207;-76
2021/01/09 08:50:45;;;;;;;21.10;10.43;;;2.00;99.90;;;;;;5071609;28;20213;-77
2021/01/09 08:53:11;;;;;;;16.27;9.40;;;2.00;99.90;;;;;;5070713;28;20232;-78
2021/01/09 08:55:39;;;;;;;19.63;9.97;;;2.00;99.90;;;;;;5076335;28;20225;-77
2021/01/09 08:58:09;;;;;;;18.13;9.97;;;2.00;99.90;;;;;;5076032;28;20198;-78
2021/01/09 09:00:37;;;;;;;16.13;9.30;;;2.00;99.90;;;;;;5073121;28;20205;-77
2021/01/09 09:03:07;;;;;;;21.27;10.43;;;2.00;99.90;;;;;;5072758;28;20295;-77
2021/01/09 09:05:33;;;;;;;19.50;11.33;;;2.10;99.90;;;;;;5068206;28;20199;-77
2021/01/09 09:08:04;;;;;;;19.83;11.03;;;2.00;99.90;;;;;;5072692;28;20202;-76
2021/01/09 09:10:32;;;;;;;19.40;10.30;;;2.00;99.90;;;;;;5072865;28;20289;-76
2021/01/09 09:13:32;;;;;;;17.90;10.23;;;2.10;99.90;;;;;;5065531;28;20237;-76
2021/01/09 09:16:14;;;;;;;19.47;10.83;;;2.10;99.90;;;;;;4984651;28;20275;-77
2021/01/09 09:18:41;;;;;;;16.90;9.87;;;2.20;99.90;;;;;;4987527;28;20201;-77
2021/01/09 09:21:09;;;;;;;20.17;10.73;;;2.10;99.90;;;;;;5035446;28;20667;-76
2021/01/09 09:23:36;;;;;;;17.90;9.53;;;2.10;99.90;;;;;;5071548;28;20217;-76
2021/01/09 09:26:04;;;;;;;18.83;10.27;;;2.10;99.90;;;;;;5072020;28;20201;-76
2021/01/09 09:28:42;;;;;;;16.17;9.70;;;2.10;99.90;;;;;;5071336;28;20570;-76
2021/01/09 09:31:20;;;;;;;17.20;9.30;;;2.20;99.90;;;;;;5070905;28;20202;-77
2021/01/09 09:34:01;;;;;;;18.80;9.93;;;2.10;99.90;;;;;;5071363;28;20202;-76
2021/01/09 09:36:28;;;;;;;19.20;10.87;;;2.10;99.90;;;;;;5070958;28;20222;-76
2021/01/09 09:38:55;;;;;;;19.27;9.20;;;2.20;99.90;;;;;;5071489;28;20202;-76
2021/01/09 09:41:21;;;;;;;18.80;10.13;;;2.20;99.90;;;;;;5071214;28;20648;-76
2021/01/09 09:43:57;;;;;;;18.37;9.80;;;2.10;99.90;;;;;;5071253;28;20214;-76
2021/01/09 09:46:27;;;;;;;20.03;10.53;;;2.10;99.90;;;;;;5069922;28;20328;-77
2021/01/09 09:49:00;;;;;;;20.37;10.33;;;2.20;99.90;;;;;;5069274;28;20198;-77
2021/01/09 09:51:33;;;;;;;20.00;9.30;;;2.20;99.90;;;;;;5064667;28;20229;-77
2021/01/09 09:53:59;;;;;;;18.73;9.57;;;2.20;99.90;;;;;;5069979;28;20257;-77
2021/01/09 09:56:26;;;;;;;19.23;9.67;;;2.20;99.90;;;;;;5070331;28;20250;-77
2021/01/09 09:59:02;;;;;;;20.60;10.93;;;2.20;99.90;;;;;;5071293;28;20676;-77
2021/01/09 10:01:29;;;;;;;22.00;12.23;;;2.20;99.90;;;;;;5074270;28;20285;-77
2021/01/09 10:03:57;;;;;;;25.67;13.40;;;2.20;99.90;;;;;;5070487;28;20263;-77
2021/01/09 10:06:38;;;;;;;20.20;11.13;;;2.20;99.90;;;;;;5070836;28;20194;-77
2021/01/09 10:09:14;;;;;;;24.13;12.17;;;2.20;99.90;;;;;;5070974;28;20225;-77
2021/01/09 10:11:41;;;;;;;24.17;13.60;;;2.20;99.90;;;;;;5068857;28;20241;-77
2021/01/09 10:14:09;;;;;;;20.47;10.20;;;2.30;99.90;;;;;;5070960;28;20206;-76
2021/01/09 10:16:37;;;;;;;19.50;10.20;;;2.30;99.90;;;;;;5069265;28;20584;-75
2021/01/09 10:19:04;;;;;;;19.50;9.77;;;2.30;99.90;;;;;;5068683;28;20202;-77
2021/01/09 10:21:31;;;;;;;22.33;10.83;;;2.30;99.90;;;;;;5071904;28;20232;-76
2021/01/09 10:23:59;;;;;;;29.23;14.77;;;2.30;99.90;;;;;;5070863;28;20194;-76
2021/01/09 10:26:28;;;;;;;21.93;11.33;;;2.30;99.90;;;;;;5070381;28;20198;-76
2021/01/09 10:28:55;;;;;;;23.63;10.57;;;2.30;99.90;;;;;;5068983;28;20229;-76
2021/01/09 10:31:32;;;;;;;22.87;10.70;;;2.30;99.90;;;;;;5064957;28;20207;-76
2021/01/09 10:33:59;;;;;;;21.90;12.17;;;2.30;99.90;;;;;;5070643;28;20280;-76
2021/01/09 10:36:26;;;;;;;19.70;10.70;;;2.30;99.90;;;;;;5071158;28;20220;-76
2021/01/09 10:38:53;;;;;;;23.10;11.90;;;2.30;99.90;;;;;;5069086;28;20198;-77
2021/01/09 10:41:19;;;;;;;21.20;11.33;;;2.40;99.90;;;;;;5061226;28;20198;-77
2021/01/09 10:43:45;;;;;;;21.53;11.83;;;2.40;99.90;;;;;;5070578;28;20224;-76
2021/01/09 10:46:21;;;;;;;22.27;10.67;;;2.40;99.90;;;;;;5066298;28;21747;-76
2021/01/09 10:48:51;;;;;;;22.33;12.27;;;2.40;99.90;;;;;;5066637;28;20255;-77
2021/01/09 10:51:19;;;;;;;24.80;12.87;;;2.40;99.90;;;;;;5070463;28;20267;-76
2021/01/09 10:53:46;;;;;;;23.40;12.20;;;2.40;99.90;;;;;;5070945;28;20214;-76
2021/01/09 10:56:15;;;;;;;22.70;11.63;;;2.40;99.90;;;;;;5071253;28;20590;-76
2021/01/09 10:58:43;;;;;;;22.77;11.73;;;2.50;99.90;;;;;;5070500;28;20590;-76
2021/01/09 11:01:10;;;;;;;24.13;12.60;;;2.40;99.90;;;;;;5074611;28;20206;-77
2021/01/09 11:03:43;;;;;;;20.33;10.83;;;2.40;99.90;;;;;;5074840;28;20202;-76
2021/01/09 11:06:20;;;;;;;23.20;11.83;;;2.40;99.90;;;;;;5074452;28;20202;-77
2021/01/09 11:08:47;;;;;;;22.30;10.93;;;2.40;99.90;;;;;;5074746;28;20260;-77
2021/01/09 11:11:13;;;;;;;22.57;11.50;;;2.50;99.90;;;;;;5076222;28;20208;-76
2021/01/09 11:13:39;;;;;;;21.77;11.43;;;2.50;99.90;;;;;;5071069;28;20203;-76
2021/01/09 11:16:09;;;;;;;21.07;11.50;;;2.50;99.90;;;;;;5077208;28;20596;-76
2021/01/09 11:18:37;;;;;;;21.17;11.03;;;2.60;99.90;;;;;;5075965;28;20201;-76
2021/01/09 11:21:03;;;;;;;19.47;9.50;;;2.60;99.90;;;;;;5077050;28;20241;-76
2021/01/09 11:23:30;;;;;;;20.67;9.47;;;2.60;99.90;;;;;;5076106;28;20748;-76
2021/01/09 11:25:57;;;;;;;20.50;10.90;;;2.70;99.90;;;;;;5074148;28;20205;-77
2021/01/09 11:28:26;;;;;;;19.27;10.40;;;2.70;99.90;;;;;;5069945;28;20230;-76
2021/01/09 11:30:52;;;;;;;18.53;9.90;;;2.70;99.90;;;;;;5073968;28;20208;-78
2021/01/09 11:33:22;;;;;;;19.83;10.47;;;2.80;99.90;;;;;;5070780;28;20227;-75
2021/01/09 11:35:48;;;;;;;21.43;9.90;;;2.70;99.90;;;;;;5067329;28;20198;-77
2021/01/09 11:38:14;;;;;;;19.20;9.93;;;2.80;99.90;;;;;;5073525;28;20206;-76
2021/01/09 11:40:43;;;;;;;21.37;10.63;;;2.90;99.90;;;;;;5071689;28;20194;-77
2021/01/09 11:43:10;;;;;;;22.77;10.87;;;2.80;99.90;;;;;;5073987;28;20230;-77
2021/01/09 11:45:40;;;;;;;21.07;11.50;;;2.80;99.90;;;;;;5073612;28;20221;-76
2021/01/09 11:48:07;;;;;;;25.70;12.43;;;2.90;99.90;;;;;;5071613;28;20214;-76
2021/01/09 11:50:33;;;;;;;23.60;12.37;;;3.00;99.90;;;;;;5075647;28;20213;-77
2021/01/09 11:52:59;;;;;;;22.47;12.23;;;3.00;99.90;;;;;;5066994;28;20275;-78
2021/01/09 11:55:29;;;;;;;33.07;16.73;;;3.00;99.90;;;;;;5058121;28;20214;-76
2021/01/09 11:57:56;;;;;;;31.50;15.87;;;3.00;99.90;;;;;;5066770;28;20226;-76
2021/01/09 12:00:23;;;;;;;27.33;13.83;;;3.00;99.90;;;;;;5065179;28;20202;-77
2021/01/09 12:02:51;;;;;;;41.93;18.03;;;3.00;99.90;;;;;;5069315;28;20276;-77
2021/01/09 12:05:20;;;;;;;35.97;17.33;;;3.00;99.90;;;;;;5068403;28;20245;-77
2021/01/09 12:07:46;;;;;;;32.50;15.77;;;2.90;99.90;;;;;;5067484;28;20198;-77
2021/01/09 12:10:14;;;;;;;36.17;17.50;;;3.00;99.90;;;;;;5067489;28;20781;-77
2021/01/09 12:12:41;;;;;;;30.33;15.60;;;3.00;99.90;;;;;;5068850;28;20264;-77
2021/01/09 12:15:09;;;;;;;30.40;16.67;;;3.00;99.90;;;;;;5068899;28;20207;-77
2021/01/09 12:17:38;;;;;;;27.83;14.90;;;3.10;99.90;;;;;;5071652;28;20222;-77
2021/01/09 12:20:05;;;;;;;31.80;16.67;;;3.20;99.90;;;;;;5070817;28;20252;-78
2021/01/09 12:22:32;;;;;;;26.73;14.37;;;3.20;99.90;;;;;;5068549;28;20226;-76
2021/01/09 12:24:58;;;;;;;28.33;16.20;;;3.10;99.90;;;;;;5068558;28;20323;-77
2021/01/09 12:27:24;;;;;;;27.50;14.10;;;3.10;99.90;;;;;;5064278;28;20210;-76
2021/01/09 12:29:51;;;;;;;25.93;13.57;;;3.20;99.90;;;;;;5067195;28;20203;-77
2021/01/09 12:32:18;;;;;;;28.00;13.70;;;3.20;99.90;;;;;;5068568;28;20821;-77
2021/01/09 12:34:44;;;;;;;26.00;15.43;;;3.40;99.90;;;;;;5068192;28;20676;-76
2021/01/09 12:37:13;;;;;;;25.80;16.10;;;3.40;99.90;;;;;;5069434;28;20226;-77
2021/01/09 12:39:39;;;;;;;27.30;14.57;;;3.30;99.90;;;;;;5058622;28;20207;-76
2021/01/09 12:42:08;;;;;;;23.80;14.47;;;3.30;99.90;;;;;;5065555;28;20226;-76
2021/01/09 12:44:34;;;;;;;24.03;13.47;;;3.40;99.90;;;;;;5057797;28;20203;-77
2021/01/09 12:47:00;;;;;;;26.40;14.17;;;3.30;99.90;;;;;;5070736;28;20227;-76
2021/01/09 12:49:28;;;;;;;22.47;12.27;;;3.40;99.90;;;;;;5066062;28;20210;-76
2021/01/09 12:51:57;;;;;;;26.40;13.37;;;3.30;99.90;;;;;;5068262;28;20301;-78
2021/01/09 12:59:47;;;;;;;26.33;14.10;;;3.20;99.90;;;;;;5896146;22;20275;-74
2021/01/09 13:02:13;;;;;;;23.80;13.57;;;3.20;99.90;;;;;;5077977;28;20702;-75
2021/01/09 13:05:16;;;;;;;24.47;12.20;;;3.20;99.90;;;;;;5094243;22;20229;-90